Time;durP1;ratioP1;P1;durP2;ratioP2;P2;SDS_P1;SDS_P2;PMS_P1;PMS_P2;Temp;Humidity;BMP_temperature;BMP_pressure;BME280_temperature;BME280_humidity;BME280_pressure;Samples;Min_cycle;Max_cycle;Signal;HPM_P1;HPM_P2
2022/09/11 00:01:23;;;;;;;3.65;0.90;;;;;;;18.23;57.62;99374.16;4492893;31;33041;-78
2022/09/11 00:03:53;;;;;;;0.68;0.68;;;;;;;18.19;58.21;99373.44;4497063;31;34310;-76
2022/09/11 00:06:24;;;;;;;0.85;0.62;;;;;;;18.25;58.22;99374.94;4493399;31;33746;-77
2022/09/11 00:09:00;;;;;;;0.45;0.45;;;;;;;18.35;57.92;99376.16;4492631;31;34710;-77
2022/09/11 00:11:29;;;;;;;;;;;;;;;18.04;59.14;99364.56;4492922;31;33199;-77
2022/09/11 00:13:58;;;;;;;0.60;0.50;;;;;;;18.12;58.19;99370.31;4486261;31;34877;-76
2022/09/11 00:16:29;;;;;;;0.50;0.50;;;;;;;18.21;57.36;99362.88;4481776;31;33392;-78
2022/09/11 00:19:00;;;;;;;0.75;0.57;;;;;;;18.28;57.54;99364.28;4480443;31;33486;-76
2022/09/11 00:21:30;;;;;;;0.50;0.50;;;;;;;18.32;57.68;99364.03;4492558;31;34058;-79
2022/09/11 00:24:00;;;;;;;0.50;0.50;;;;;;;18.14;58.21;99357.06;4484625;31;33852;-77
2022/09/11 00:26:29;;;;;;;1.67;1.13;;;;;;;18.20;57.83;99364.66;4482701;32;34673;-77
2022/09/11 00:29:00;;;;;;;0.98;0.60;;;;;;;18.12;58.14;99356.31;4476447;31;34184;-78
2022/09/11 00:31:31;;;;;;;1.40;0.70;;;;;;;18.29;57.17;99358.97;4478264;31;33516;-76
2022/09/11 00:34:00;;;;;;;0.60;0.60;;;;;;;18.31;57.27;99348.34;4476217;31;32790;-78
2022/09/11 00:36:31;;;;;;;1.05;0.70;;;;;;;18.35;57.30;99352.53;4476090;31;33784;-78
2022/09/11 00:39:01;;;;;;;0.85;0.65;;;;;;;18.08;58.01;99347.75;4487121;31;34347;-76
2022/09/11 00:41:33;;;;;;;0.55;0.50;;;;;;;18.26;57.41;99356.47;4485662;31;33202;-77
2022/09/11 00:44:04;;;;;;;0.70;0.55;;;;;;;18.17;57.37;99353.44;4490275;31;34168;-78
2022/09/11 00:46:36;;;;;;;0.40;0.40;;;;;;;18.12;57.55;99359.81;4489723;31;34866;-77
2022/09/11 00:49:15;;;;;;;0.93;0.55;;;;;;;18.10;58.13;99371.31;4484820;31;33576;-77
2022/09/11 00:51:46;;;;;;;0.40;0.40;;;;;;;18.11;57.99;99360.72;4492051;31;33024;-76
2022/09/11 00:54:18;;;;;;;;;;;;;;;17.91;57.99;99359.06;4493024;31;33670;-77
2022/09/11 00:56:48;;;;;;;0.68;0.40;;;;;;;17.96;57.52;99353.59;4477459;32;34666;-77
2022/09/11 00:59:20;;;;;;;0.70;0.70;;;;;;;18.17;57.04;99356.94;4476636;32;33616;-78
2022/09/11 01:01:48;;;;;;;1.33;0.75;;;;;;;18.08;57.44;99349.53;4482500;32;32938;-78
2022/09/11 01:04:17;;;;;;;0.50;0.50;;;;;;;17.98;58.03;99356.16;4479357;31;33436;-77
2022/09/11 01:06:48;;;;;;;1.00;0.60;;;;;;;18.02;58.20;99355.91;4484152;31;34973;-78
2022/09/11 01:09:19;;;;;;;0.55;0.55;;;;;;;17.88;58.34;99356.59;4484960;31;33129;-78
2022/09/11 01:11:52;;;;;;;0.77;0.60;;;;;;;18.07;57.65;99348.69;4478513;31;31859;-77
2022/09/11 01:14:32;;;;;;;0.73;0.60;;;;;;;17.94;58.27;99351.97;4484704;31;34559;-76
2022/09/11 01:17:11;;;;;;;0.93;0.93;;;;;;;17.69;58.86;99347.88;4487378;31;34059;-76
2022/09/11 01:19:51;;;;;;;0.50;0.50;;;;;;;17.72;58.66;99344.25;4485949;31;34649;-76
2022/09/11 01:22:39;;;;;;;0.93;0.75;;;;;;;17.61;59.03;99342.97;4483261;31;33701;-76
2022/09/11 01:25:26;;;;;;;0.50;0.50;;;;;;;17.66;58.78;99342.75;4476453;31;33808;-77
2022/09/11 01:27:57;;;;;;;0.50;0.50;;;;;;;17.62;58.96;99341.22;4483504;31;35331;-77
2022/09/11 01:30:29;;;;;;;0.50;0.50;;;;;;;17.55;59.08;99329.31;4495516;31;34742;-76
2022/09/11 01:33:10;;;;;;;0.50;0.50;;;;;;;17.65;58.79;99333.22;4488052;31;33373;-76
2022/09/11 01:35:51;;;;;;;0.50;0.50;;;;;;;17.86;57.98;99333.97;4478643;31;34498;-77
2022/09/11 01:38:26;;;;;;;0.60;0.60;;;;;;;17.68;58.70;99330.44;4474341;31;33932;-77
2022/09/11 01:40:57;;;;;;;0.50;0.50;;;;;;;17.77;58.36;99322.13;4477140;31;33846;-77
2022/09/11 01:43:30;;;;;;;0.60;0.60;;;;;;;17.22;60.04;99314.25;4493761;31;33747;-76
2022/09/11 01:46:02;;;;;;;1.40;0.70;;;;;;;17.51;59.33;99317.28;4490455;31;34561;-76
2022/09/11 01:48:37;;;;;;;0.70;0.70;;;;;;;17.54;58.88;99312.75;4486378;31;34690;-77
2022/09/11 01:51:09;;;;;;;0.77;0.70;;;;;;;17.17;60.05;99311.84;4478469;31;33897;-77
2022/09/11 01:53:40;;;;;;;0.95;0.70;;;;;;;17.23;59.98;99305.47;4478314;31;33362;-77
2022/09/11 01:56:18;;;;;;;0.60;0.60;;;;;;;16.92;61.02;99312.12;4481595;31;34582;-77
2022/09/11 01:58:50;;;;;;;0.75;0.70;;;;;;;16.70;61.96;99309.59;4475981;31;33632;-77
2022/09/11 02:01:21;;;;;;;0.73;0.70;;;;;;;17.00;60.69;99306.53;4473364;31;33630;-77
2022/09/11 02:03:50;;;;;;;;;;;;;;;16.93;61.17;99300.69;4476677;32;32576;-78
2022/09/11 02:06:25;;;;;;;0.70;0.70;;;;;;;16.81;61.74;99302.09;4480557;31;33550;-77
2022/09/11 02:08:57;;;;;;;1.33;0.70;;;;;;;16.50;62.99;99313.06;4486324;31;33844;-77
2022/09/11 02:11:32;;;;;;;0.62;0.62;;;;;;;16.94;61.60;99312.06;4477804;31;34428;-77
2022/09/11 02:14:05;;;;;;;0.80;0.80;;;;;;;17.13;61.04;99306.81;4485714;31;35284;-77
2022/09/11 02:16:41;;;;;;;0.75;0.70;;;;;;;16.74;62.19;99305.88;4480647;31;33690;-75
2022/09/11 02:19:11;;;;;;;0.90;0.75;;;;;;;16.74;62.34;99307.66;4480871;32;33488;-78
2022/09/11 02:21:41;;;;;;;0.70;0.70;;;;;;;16.55;63.15;99307.63;4477773;32;35291;-77
2022/09/11 02:24:10;;;;;;;1.10;0.70;;;;;;;16.76;62.68;99303.22;4475886;32;33205;-77
2022/09/11 02:26:42;;;;;;;2.65;1.23;;;;;;;16.74;62.56;99302.41;4480449;31;34276;-76
2022/09/11 02:29:14;;;;;;;0.60;0.60;;;;;;;16.64;62.69;99294.13;4484823;31;33685;-77
2022/09/11 02:31:43;;;;;;;0.70;0.70;;;;;;;16.56;63.13;99296.25;4479992;31;33276;-78
2022/09/11 02:34:13;;;;;;;0.73;0.70;;;;;;;16.34;63.50;99297.19;4476177;31;33331;-78
2022/09/11 02:36:53;;;;;;;0.70;0.70;;;;;;;16.46;63.39;99298.41;4483013;31;33585;-78
2022/09/11 02:39:33;;;;;;;0.70;0.70;;;;;;;16.49;63.39;99298.28;4476243;32;33304;-77
2022/09/11 02:42:19;;;;;;;0.60;0.60;;;;;;;16.52;63.19;99302.53;4477029;31;34181;-76
2022/09/11 02:44:55;;;;;;;0.68;0.62;;;;;;;16.33;63.82;99299.84;4490508;31;31840;-77
2022/09/11 02:47:32;;;;;;;0.50;0.50;;;;;;;16.37;63.48;99306.66;4487225;31;33716;-77
2022/09/11 02:50:07;;;;;;;0.60;0.60;;;;;;;16.32;63.97;99306.00;4477933;31;33695;-77
2022/09/11 02:52:46;;;;;;;1.25;0.90;;;;;;;16.36;64.02;99315.44;4488391;31;33278;-76
2022/09/11 02:55:21;;;;;;;1.30;1.10;;;;;;;16.70;62.75;99311.34;4489921;31;34178;-77
2022/09/11 02:57:55;;;;;;;0.60;0.60;;;;;;;16.53;63.39;99307.72;4483152;31;34222;-77
2022/09/11 03:00:26;;;;;;;0.60;0.60;;;;;;;16.81;62.39;99301.25;4482961;31;32035;-77
2022/09/11 03:02:55;;;;;;;0.70;0.68;;;;;;;16.92;62.18;99303.41;4489552;31;33471;-76
2022/09/11 03:05:24;;;;;;;0.60;0.60;;;;;;;17.28;60.51;99306.09;4487637;31;33364;-77
2022/09/11 03:07:53;;;;;;;0.60;0.60;;;;;;;16.84;62.06;99311.59;4479135;31;33705;-77
2022/09/11 03:10:22;;;;;;;0.70;0.70;;;;;;;16.87;61.98;99311.47;4482410;31;34051;-77
2022/09/11 03:12:51;;;;;;;1.37;1.00;;;;;;;16.73;62.62;99303.34;4477446;31;33683;-78
2022/09/11 03:15:21;;;;;;;0.62;0.60;;;;;;;16.59;63.07;99309.19;4477750;31;31988;-77
2022/09/11 03:17:52;;;;;;;0.70;0.70;;;;;;;16.37;64.06;99306.66;4489182;31;34599;-77
2022/09/11 03:20:21;;;;;;;0.70;0.70;;;;;;;16.70;63.30;99327.06;4486132;31;33647;-76
2022/09/11 03:22:50;;;;;;;0.70;0.70;;;;;;;16.64;63.45;99309.84;4483380;31;33851;-78
2022/09/11 03:25:19;;;;;;;0.60;0.60;;;;;;;16.53;64.10;99312.94;4483355;31;33128;-78
2022/09/11 03:27:48;;;;;;;0.88;0.88;;;;;;;16.43;64.50;99316.88;4480303;31;33387;-78
2022/09/11 03:30:18;;;;;;;1.35;0.77;;;;;;;16.69;63.56;99312.25;4478549;31;34893;-77
2022/09/11 03:32:49;;;;;;;0.70;0.60;;;;;;;16.74;63.41;99311.12;4488969;31;33422;-78
2022/09/11 03:35:20;;;;;;;0.77;0.73;;;;;;;16.64;63.71;99309.84;4488746;31;34082;-78
2022/09/11 03:37:49;;;;;;;0.57;0.57;;;;;;;16.75;63.30;99306.75;4489680;31;33637;-77
2022/09/11 03:40:19;;;;;;;0.68;0.60;;;;;;;17.14;61.87;99308.53;4489452;31;34109;-76
2022/09/11 03:42:48;;;;;;;0.50;0.50;;;;;;;16.91;62.71;99310.41;4486587;31;34649;-78
2022/09/11 03:45:20;;;;;;;0.63;0.63;;;;;;;17.00;62.45;99306.53;4482650;31;32769;-77
2022/09/11 03:47:49;;;;;;;0.50;0.50;;;;;;;16.82;63.15;99313.47;4486807;31;34536;-78
2022/09/11 03:50:17;;;;;;;1.08;0.70;;;;;;;17.05;62.57;99310.62;4487047;31;33747;-78
2022/09/11 03:52:49;;;;;;;0.55;0.55;;;;;;;17.10;62.61;99318.28;4492080;31;33718;-77
2022/09/11 03:55:18;;;;;;;0.60;0.60;;;;;;;16.97;63.06;99317.16;4485059;31;32797;-77
2022/09/11 03:57:47;;;;;;;1.10;0.73;;;;;;;17.25;62.20;99321.97;4476444;31;33598;-77
2022/09/11 04:00:16;;;;;;;1.15;0.60;;;;;;;17.24;61.90;99321.13;4481672;31;31437;-77
2022/09/11 04:02:48;;;;;;;3.37;0.70;;;;;;;17.18;62.10;99320.53;4474184;31;113569;-77
2022/09/11 04:05:18;;;;;;;1.40;0.80;;;;;;;17.01;63.09;99316.94;4489073;31;33024;-77
2022/09/11 04:07:49;;;;;;;0.52;0.52;;;;;;;17.12;62.71;99323.47;4482280;31;33965;-78
2022/09/11 04:10:18;;;;;;;0.52;0.52;;;;;;;17.30;61.74;99324.38;4489160;31;32234;-79
2022/09/11 04:12:47;;;;;;;1.42;1.12;;;;;;;17.22;62.06;99327.34;4481641;31;33652;-77
2022/09/11 04:15:16;;;;;;;0.70;0.65;;;;;;;17.30;61.92;99327.88;4477732;31;33481;-77
2022/09/11 04:17:45;;;;;;;0.75;0.70;;;;;;;17.54;61.00;99327.59;4484752;31;34319;-78
2022/09/11 04:20:13;;;;;;;0.55;0.55;;;;;;;17.36;61.71;99329.34;4491362;31;33516;-77
2022/09/11 04:22:42;;;;;;;0.60;0.60;;;;;;;17.15;62.50;99331.19;4488559;31;33143;-78
2022/09/11 04:25:14;;;;;;;2.65;0.80;;;;;;;17.52;61.04;99332.06;4486589;31;33921;-77
2022/09/11 04:27:42;;;;;;;0.50;0.50;;;;;;;17.24;62.12;99333.38;4481947;31;33342;-79
2022/09/11 04:30:12;;;;;;;0.88;0.70;;;;;;;17.22;62.09;99332.59;4479403;31;33829;-78
2022/09/11 04:32:41;;;;;;;0.60;0.60;;;;;;;17.37;61.67;99342.41;4479630;31;33556;-78
2022/09/11 04:35:10;;;;;;;0.60;0.60;;;;;;;17.37;61.69;99337.16;4484905;31;33608;-78
2022/09/11 04:37:40;;;;;;;0.60;0.60;;;;;;;17.38;61.92;99335.38;4484238;31;35662;-79
2022/09/11 04:40:09;;;;;;;0.68;0.68;;;;;;;17.48;61.79;99334.00;4481983;31;34782;-78
2022/09/11 04:42:40;;;;;;;0.88;0.70;;;;;;;17.36;62.26;99332.81;4480783;31;33964;-79
2022/09/11 04:45:09;;;;;;;1.05;0.60;;;;;;;17.23;62.74;99336.94;4476087;31;33415;-77
2022/09/11 04:47:39;;;;;;;0.70;0.70;;;;;;;17.40;62.21;99334.38;4479252;31;34537;-78
2022/09/11 04:50:09;;;;;;;1.98;0.70;;;;;;;17.31;62.57;99334.81;4493224;31;34076;-78
2022/09/11 04:52:38;;;;;;;0.60;0.60;;;;;;;17.43;62.31;99326.34;4486390;31;34251;-78
2022/09/11 04:55:08;;;;;;;2.85;0.80;;;;;;;17.36;62.62;99329.34;4489036;31;33859;-77
2022/09/11 04:57:37;;;;;;;1.17;0.85;;;;;;;17.27;62.67;99330.59;4478555;31;33726;-76
2022/09/11 05:00:10;;;;;;;1.17;0.80;;;;;;;17.36;62.56;99330.19;4490357;31;34061;-78
2022/09/11 05:02:39;;;;;;;0.68;0.52;;;;;;;17.34;62.67;99333.81;4484299;31;33152;-77
2022/09/11 05:05:09;;;;;;;0.75;0.60;;;;;;;17.25;62.84;99332.44;4489599;31;34063;-79
2022/09/11 05:07:38;;;;;;;0.57;0.57;;;;;;;17.36;62.72;99329.34;4475801;31;33526;-78
2022/09/11 05:10:08;;;;;;;1.12;0.88;;;;;;;17.45;62.70;99328.91;4488575;31;34641;-78
2022/09/11 05:12:37;;;;;;;0.90;0.60;;;;;;;17.43;62.91;99333.38;4481810;31;33095;-77
2022/09/11 05:15:10;;;;;;;0.83;0.83;;;;;;;17.60;62.52;99328.19;4478343;31;33044;-79
2022/09/11 05:17:39;;;;;;;1.55;0.95;;;;;;;17.48;63.00;99329.59;4476275;31;33515;-77
2022/09/11 05:20:10;;;;;;;0.60;0.60;;;;;;;17.53;63.00;99331.16;4480317;31;33792;-79
2022/09/11 05:22:40;;;;;;;1.33;0.60;;;;;;;17.48;63.02;99334.00;4477648;31;33566;-79
2022/09/11 05:25:10;;;;;;;2.85;0.80;;;;;;;17.54;63.23;99344.22;4493965;31;34102;-78
2022/09/11 05:27:39;;;;;;;0.60;0.60;;;;;;;17.69;62.82;99346.09;4474731;31;33646;-78
2022/09/11 05:30:10;;;;;;;0.75;0.60;;;;;;;17.89;62.16;99349.56;4474603;31;34631;-78
2022/09/11 05:32:39;;;;;;;0.60;0.60;;;;;;;17.89;62.30;99360.06;4476272;31;33460;-78
2022/09/11 05:35:08;;;;;;;1.23;0.70;;;;;;;17.64;63.35;99355.13;4482571;31;32513;-76
2022/09/11 05:37:37;;;;;;;0.93;0.62;;;;;;;17.70;63.42;99362.69;4480888;31;33465;-78
2022/09/11 05:40:07;;;;;;;2.55;0.80;;;;;;;17.85;62.64;99369.84;4483174;31;33619;-79
2022/09/11 05:42:36;;;;;;;0.77;0.62;;;;;;;18.01;61.64;99364.72;4488611;31;33534;-77
2022/09/11 05:45:06;;;;;;;1.62;0.90;;;;;;;18.04;61.25;99366.34;4479904;31;33875;-78
2022/09/11 05:47:36;;;;;;;2.22;0.90;;;;;;;18.15;60.91;99368.47;4481481;31;32826;-78
2022/09/11 05:50:06;;;;;;;0.70;0.70;;;;;;;17.98;61.56;99362.25;4474901;31;33129;-77
2022/09/11 05:52:35;;;;;;;0.98;0.68;;;;;;;18.23;60.96;99356.62;4486183;31;33349;-77
2022/09/11 05:55:04;;;;;;;0.57;0.55;;;;;;;18.27;60.92;99358.19;4485231;31;33172;-78
2022/09/11 05:57:32;;;;;;;0.60;0.60;;;;;;;18.23;60.59;99363.66;4480109;31;32739;-77
2022/09/11 06:00:02;;;;;;;0.85;0.62;;;;;;;18.26;60.61;99369.59;4480507;31;34012;-78
2022/09/11 06:02:38;;;;;;;1.75;0.70;;;;;;;18.47;59.69;99369.44;4477590;31;33945;-79
2022/09/11 06:05:07;;;;;;;0.60;0.60;;;;;;;18.04;60.40;99366.34;4475837;31;32530;-79
2022/09/11 06:07:39;;;;;;;0.93;0.70;;;;;;;18.00;61.35;99375.28;4488541;31;33623;-78
2022/09/11 06:10:09;;;;;;;0.82;0.68;;;;;;;18.26;59.91;99377.47;4480323;31;34750;-77
2022/09/11 06:12:38;;;;;;;0.70;0.70;;;;;;;17.82;60.98;99371.78;4482311;31;33671;-78
2022/09/11 06:15:07;;;;;;;0.68;0.68;;;;;;;18.01;60.77;99380.47;4486345;31;33738;-77
2022/09/11 06:17:58;;;;;;;0.98;0.70;;;;;;;17.97;61.54;99383.31;4477969;31;33474;-79
2022/09/11 06:20:27;;;;;;;2.17;0.85;;;;;;;18.27;60.31;99383.59;4478470;32;34375;-79
2022/09/11 06:22:56;;;;;;;0.62;0.62;;;;;;;18.49;59.69;99380.75;4482552;32;33585;-78
2022/09/11 06:25:26;;;;;;;1.00;0.70;;;;;;;18.53;59.44;99387.50;4476672;32;31705;-79
2022/09/11 06:27:55;;;;;;;0.68;0.60;;;;;;;18.61;59.46;99374.84;4481327;31;33683;-77
2022/09/11 06:30:24;;;;;;;0.77;0.68;;;;;;;18.48;60.02;99379.03;4482014;31;33156;-78
2022/09/11 06:32:55;;;;;;;0.70;0.70;;;;;;;18.89;57.71;99376.06;4490591;31;34180;-77
2022/09/11 06:35:25;;;;;;;0.60;0.60;;;;;;;18.63;58.58;99369.50;4481411;31;33479;-79
2022/09/11 06:37:55;;;;;;;0.68;0.68;;;;;;;18.60;58.48;99367.87;4483513;31;33950;-77
2022/09/11 06:40:23;;;;;;;1.70;0.88;;;;;;;18.64;58.23;99373.84;4484670;31;33285;-79
2022/09/11 06:42:53;;;;;;;0.65;0.65;;;;;;;18.53;59.03;99362.13;4487628;31;33921;-79
2022/09/11 06:45:24;;;;;;;1.27;0.98;;;;;;;18.72;58.64;99369.03;4479788;32;33312;-78
2022/09/11 06:47:53;;;;;;;0.55;0.55;;;;;;;18.37;59.94;99368.22;4484343;31;34570;-78
2022/09/11 06:50:22;;;;;;;1.83;0.90;;;;;;;18.72;59.36;99366.41;4478081;32;33591;-79
2022/09/11 06:52:57;;;;;;;0.90;0.70;;;;;;;18.60;58.94;99362.63;4484941;31;33534;-77
2022/09/11 06:55:27;;;;;;;1.35;0.80;;;;;;;18.57;59.85;99367.22;4483542;31;33987;-77
2022/09/11 06:57:56;;;;;;;1.12;0.60;;;;;;;18.84;58.77;99370.22;4475808;31;34059;-76
2022/09/11 07:00:25;;;;;;;0.93;0.80;;;;;;;18.88;58.39;99369.13;4479348;31;33876;-78
2022/09/11 07:02:55;;;;;;;0.65;0.55;;;;;;;18.83;58.70;99365.91;4486116;31;33898;-78
2022/09/11 07:05:24;;;;;;;0.90;0.60;;;;;;;18.93;58.56;99369.72;4487531;31;33869;-78
2022/09/11 07:07:54;;;;;;;0.50;0.50;;;;;;;19.00;58.01;99363.22;4487081;31;33426;-78
2022/09/11 07:10:25;;;;;;;0.70;0.70;;;;;;;19.10;58.29;99361.78;4483873;31;34483;-78
2022/09/11 07:12:55;;;;;;;0.93;0.80;;;;;;;19.02;58.42;99356.09;4483270;31;33111;-78
2022/09/11 07:15:23;;;;;;;0.73;0.60;;;;;;;19.02;58.29;99364.00;4481864;31;33306;-77
2022/09/11 07:17:54;;;;;;;0.80;0.80;;;;;;;19.19;58.46;99356.03;4485499;31;33410;-77
2022/09/11 07:20:23;;;;;;;0.70;0.60;;;;;;;19.70;57.38;99360.34;4481130;31;33487;-79
2022/09/11 07:22:51;;;;;;;0.70;0.70;;;;;;;19.72;57.27;99353.22;4484091;31;33917;-77
2022/09/11 07:25:20;;;;;;;0.60;0.60;;;;;;;19.79;55.54;99354.56;4480047;31;34149;-79
2022/09/11 07:27:51;;;;;;;0.80;0.75;;;;;;;19.82;55.79;99352.59;4488948;31;34022;-78
2022/09/11 07:30:20;;;;;;;3.45;1.20;;;;;;;19.65;56.22;99341.31;4480434;31;32200;-78
2022/09/11 07:32:50;;;;;;;0.68;0.68;;;;;;;19.77;56.27;99351.16;4479123;31;34394;-77
2022/09/11 07:35:20;;;;;;;0.68;0.60;;;;;;;19.78;56.08;99347.59;4481879;31;34202;-79
2022/09/11 07:37:50;;;;;;;0.55;0.55;;;;;;;19.75;56.39;99339.88;4484612;31;36352;-78
2022/09/11 07:40:20;;;;;;;1.70;0.82;;;;;;;19.86;56.92;99349.78;4484629;31;34693;-78
2022/09/11 07:42:49;;;;;;;1.23;0.68;;;;;;;20.28;54.85;99350.91;4488958;31;32141;-78
2022/09/11 07:45:19;;;;;;;0.57;0.55;;;;;;;20.13;54.68;99347.38;4483763;31;33180;-78
2022/09/11 07:47:51;;;;;;;0.62;0.62;;;;;;;19.77;55.03;99346.75;4479725;31;33155;-77
2022/09/11 07:50:23;;;;;;;0.60;0.60;;;;;;;19.92;54.23;99346.81;4486956;31;33625;-77
2022/09/11 07:52:52;;;;;;;0.53;0.53;;;;;;;19.97;54.98;99352.66;4484302;31;33421;-78
2022/09/11 07:55:21;;;;;;;0.50;0.50;;;;;;;19.86;56.14;99355.06;4481997;31;33943;-77
2022/09/11 07:57:50;;;;;;;0.88;0.60;;;;;;;20.25;54.22;99349.28;4474518;32;33453;-78
2022/09/11 08:00:21;;;;;;;0.85;0.65;;;;;;;20.46;53.84;99353.31;4475801;32;34512;-79
2022/09/11 08:02:56;;;;;;;0.98;0.57;;;;;;;20.71;52.83;99351.84;4486868;31;33516;-77
2022/09/11 08:05:25;;;;;;;0.52;0.52;;;;;;;20.59;53.78;99344.69;4477235;31;32570;-78
2022/09/11 08:07:54;;;;;;;1.48;0.57;;;;;;;20.76;52.76;99347.16;4479941;31;33520;-77
2022/09/11 08:10:23;;;;;;;0.65;0.65;;;;;;;20.70;53.36;99360.69;4480801;31;33739;-79
2022/09/11 08:12:56;;;;;;;0.80;0.70;;;;;;;20.52;53.24;99352.06;4488289;31;34038;-78
2022/09/11 08:15:30;;;;;;;2.05;0.82;;;;;;;20.31;54.02;99361.25;4484351;31;33610;-77
2022/09/11 08:17:59;;;;;;;;;;;;;;;20.35;54.28;99360.13;4478775;31;33790;-79
2022/09/11 08:20:28;;;;;;;0.50;0.50;;;;;;;20.45;53.86;99356.00;4484379;31;34304;-77
2022/09/11 08:22:57;;;;;;;0.65;0.47;;;;;;;20.46;54.09;99360.34;4491280;31;34192;-79
2022/09/11 08:25:27;;;;;;;1.10;0.60;;;;;;;20.51;53.73;99363.53;4490604;31;33358;-77
2022/09/11 08:27:57;;;;;;;1.08;0.70;;;;;;;20.65;53.78;99360.13;4487903;31;32957;-79
2022/09/11 08:30:27;;;;;;;0.50;0.50;;;;;;;20.81;52.72;99363.53;4487699;31;33767;-78
2022/09/11 08:32:57;;;;;;;0.50;0.50;;;;;;;20.58;53.49;99358.78;4479807;31;33908;-78
2022/09/11 08:35:27;;;;;;;1.12;0.60;;;;;;;20.48;53.99;99360.25;4482387;31;33713;-77
2022/09/11 08:37:58;;;;;;;0.55;0.52;;;;;;;20.69;53.75;99351.09;4486751;31;33695;-77
2022/09/11 08:40:28;;;;;;;0.62;0.57;;;;;;;20.94;52.68;99350.44;4480515;31;33977;-77
2022/09/11 08:43:02;;;;;;;0.80;0.52;;;;;;;21.02;52.26;99357.88;4478530;31;33770;-78
2022/09/11 08:45:35;;;;;;;0.43;0.43;;;;;;;21.03;53.03;99349.03;4479359;31;33441;-78
2022/09/11 08:48:08;;;;;;;0.55;0.55;;;;;;;21.16;52.01;99349.12;4495941;31;34019;-77
2022/09/11 08:50:40;;;;;;;0.40;0.40;;;;;;;21.36;51.37;99358.41;4481553;31;33948;-78
2022/09/11 08:53:14;;;;;;;1.17;0.70;;;;;;;21.40;51.12;99346.75;4484681;31;33143;-78
2022/09/11 08:55:47;;;;;;;0.50;0.50;;;;;;;21.49;51.43;99356.75;4480785;31;32757;-77
2022/09/11 08:58:22;;;;;;;0.85;0.70;;;;;;;21.12;51.73;99352.87;4489031;31;33462;-78
2022/09/11 09:00:56;;;;;;;0.68;0.60;;;;;;;21.18;52.16;99350.72;4489584;31;34018;-79
2022/09/11 09:03:41;;;;;;;0.68;0.68;;;;;;;21.46;51.34;99355.16;4482498;31;33993;-78
2022/09/11 09:06:34;;;;;;;0.68;0.57;;;;;;;21.27;51.44;99355.41;4478106;31;34288;-80
2022/09/11 09:09:11;;;;;;;0.47;0.47;;;;;;;21.14;51.26;99349.19;4484433;31;34398;-77
2022/09/11 09:11:46;;;;;;;0.60;0.60;;;;;;;21.05;51.42;99363.81;4486145;31;33265;-79
2022/09/11 09:14:31;;;;;;;0.40;0.40;;;;;;;21.08;52.30;99349.59;4483081;31;32612;-77
2022/09/11 09:17:05;;;;;;;1.17;0.50;;;;;;;21.72;50.30;99348.19;4486643;31;33877;-78
2022/09/11 09:19:39;;;;;;;0.68;0.50;;;;;;;21.64;50.41;99342.53;4482317;31;33549;-78
2022/09/11 09:22:15;;;;;;;0.40;0.40;;;;;;;21.65;51.13;99349.53;4476463;31;34550;-79
2022/09/11 09:24:48;;;;;;;0.30;0.30;;;;;;;21.91;49.33;99354.91;4478480;31;33428;-78
2022/09/11 09:27:21;;;;;;;0.43;0.43;;;;;;;21.73;50.16;99354.31;4476545;31;33114;-78
2022/09/11 09:29:53;;;;;;;1.15;0.50;;;;;;;21.62;49.69;99344.44;4483521;31;33573;-77
2022/09/11 09:32:27;;;;;;;0.60;0.50;;;;;;;21.78;50.81;99351.38;4482311;31;34359;-79
2022/09/11 09:35:00;;;;;;;0.68;0.40;;;;;;;21.70;49.94;99349.25;4480279;31;33355;-78
2022/09/11 09:37:29;;;;;;;0.50;0.50;;;;;;;21.71;49.05;99343.00;4480716;31;34288;-78
2022/09/11 09:39:59;;;;;;;0.62;0.60;;;;;;;21.48;49.72;99350.63;4480917;31;34727;-77
2022/09/11 09:43:03;;;;;;;0.57;0.50;;;;;;;21.19;50.04;99351.56;4488307;31;32670;-77
2022/09/11 09:45:42;;;;;;;0.52;0.45;;;;;;;21.12;50.17;99348.47;4488079;31;34333;-79
2022/09/11 09:48:12;;;;;;;1.05;0.60;;;;;;;21.04;51.31;99343.66;4475919;31;33171;-77
2022/09/11 09:50:43;;;;;;;0.57;0.50;;;;;;;21.46;50.09;99347.22;4478402;31;33846;-77
2022/09/11 09:53:27;;;;;;;0.85;0.60;;;;;;;21.50;50.06;99343.47;4479690;31;33671;-77
2022/09/11 09:55:56;;;;;;;0.55;0.55;;;;;;;21.76;49.43;99340.06;4477655;31;34712;-78
2022/09/11 09:58:28;;;;;;;0.98;0.60;;;;;;;21.76;48.98;99350.63;4485602;31;33284;-78
2022/09/11 10:00:57;;;;;;;0.75;0.65;;;;;;;21.72;48.33;99342.91;4477839;31;33802;-78
2022/09/11 10:03:26;;;;;;;0.85;0.57;;;;;;;21.54;49.00;99338.81;4478284;31;34562;-79
2022/09/11 10:05:59;;;;;;;1.15;0.55;;;;;;;21.71;49.07;99341.22;4474019;31;34965;-79
2022/09/11 10:08:34;;;;;;;1.20;0.68;;;;;;;21.78;48.73;99344.31;4479802;31;33946;-76
2022/09/11 10:11:04;;;;;;;1.08;0.70;;;;;;;21.43;50.27;99349.19;4480732;31;33121;-78
2022/09/11 10:13:34;;;;;;;0.55;0.55;;;;;;;21.90;49.65;99345.31;4482185;31;33059;-77
2022/09/11 10:16:05;;;;;;;0.50;0.50;;;;;;;21.76;49.54;99350.63;4480413;31;34284;-78
2022/09/11 10:18:36;;;;;;;0.73;0.50;;;;;;;21.69;49.88;99342.25;4489294;31;33854;-78
2022/09/11 10:21:21;;;;;;;0.45;0.45;;;;;;;21.80;49.86;99342.41;4493363;31;33771;-77
2022/09/11 10:23:53;;;;;;;0.85;0.70;;;;;;;21.64;49.40;99347.81;4482241;31;33665;-78
2022/09/11 10:26:26;;;;;;;0.55;0.55;;;;;;;21.17;50.65;99345.56;4487143;31;33684;-79
2022/09/11 10:28:58;;;;;;;0.88;0.62;;;;;;;21.38;49.92;99343.34;4490904;31;34740;-77
2022/09/11 10:31:27;;;;;;;1.17;0.75;;;;;;;21.49;50.42;99338.25;4494507;31;33534;-78
2022/09/11 10:33:57;;;;;;;0.70;0.50;;;;;;;21.58;50.66;99342.97;4497127;31;34602;-78
2022/09/11 10:36:30;;;;;;;3.03;1.35;;;;;;;21.62;50.13;99344.44;4490690;31;32945;-79
2022/09/11 10:39:00;;;;;;;1.95;0.60;;;;;;;21.79;49.99;99345.13;4483845;31;34151;-79
2022/09/11 10:41:31;;;;;;;1.42;1.08;;;;;;;21.61;50.51;99339.28;4473216;32;34156;-79
2022/09/11 10:44:01;;;;;;;0.70;0.52;;;;;;;21.83;50.12;99339.56;4478253;32;33749;-77
2022/09/11 10:46:32;;;;;;;1.07;0.80;;;;;;;22.09;50.39;99343.13;4474549;32;34537;-79
2022/09/11 10:49:09;;;;;;;0.60;0.55;;;;;;;22.19;48.96;99337.25;4473781;32;33078;-78
2022/09/11 10:51:39;;;;;;;;;;;;;;;21.98;50.35;99334.22;4474493;32;34592;-78
2022/09/11 10:54:22;;;;;;;1.73;0.62;;;;;;;21.92;50.20;99324.91;4482511;31;33882;-77
2022/09/11 10:57:04;;;;;;;1.08;0.55;;;;;;;22.06;49.96;99316.94;4496451;31;33562;-79
2022/09/11 10:59:38;;;;;;;0.70;0.50;;;;;;;22.51;48.84;99317.44;4497035;31;33377;-77
2022/09/11 11:02:18;;;;;;;0.43;0.40;;;;;;;22.67;47.91;99304.00;4494974;31;34408;-78
2022/09/11 11:04:47;;;;;;;0.83;0.70;;;;;;;23.02;47.20;99310.47;4493439;31;33514;-79
2022/09/11 11:07:28;;;;;;;0.65;0.57;;;;;;;23.05;46.69;99303.16;4493678;31;34464;-78
2022/09/11 11:10:06;;;;;;;0.57;0.57;;;;;;;22.92;46.90;99308.41;4493381;31;32950;-77
2022/09/11 11:12:45;;;;;;;0.60;0.60;;;;;;;22.94;47.40;99317.09;4498875;31;34652;-79
2022/09/11 11:15:30;;;;;;;0.98;0.65;;;;;;;22.97;47.82;99308.94;4493443;31;34369;-78
2022/09/11 11:18:18;;;;;;;0.90;0.60;;;;;;;23.02;46.77;99308.66;4492436;31;34363;-78
2022/09/11 11:20:54;;;;;;;0.77;0.60;;;;;;;23.10;47.45;99303.69;4493274;31;34017;-77
2022/09/11 11:23:36;;;;;;;1.40;0.70;;;;;;;23.24;46.69;99310.59;4494305;31;33422;-79
2022/09/11 11:26:23;;;;;;;0.57;0.52;;;;;;;23.25;46.46;99304.38;4493195;31;33912;-77
2022/09/11 11:29:03;;;;;;;0.50;0.50;;;;;;;23.14;46.35;99310.41;4499014;31;34678;-79
2022/09/11 11:31:41;;;;;;;0.40;0.40;;;;;;;23.40;46.54;99305.06;4495717;31;34211;-79
2022/09/11 11:34:24;;;;;;;0.95;0.73;;;;;;;23.67;46.00;99304.84;4479117;31;33488;-78
2022/09/11 11:37:00;;;;;;;0.43;0.43;;;;;;;23.68;43.93;99303.91;4479748;31;33619;-79
2022/09/11 11:39:38;;;;;;;0.40;0.40;;;;;;;23.89;42.78;99303.28;4492759;31;34770;-79
2022/09/11 11:42:12;;;;;;;0.40;0.40;;;;;;;23.99;43.06;99296.34;4493151;31;33402;-78
2022/09/11 11:44:47;;;;;;;0.40;0.40;;;;;;;23.70;42.88;99296.66;4498695;31;34363;-77
2022/09/11 11:47:17;;;;;;;0.52;0.40;;;;;;;23.45;44.60;99296.78;4493076;31;34094;-79
2022/09/11 11:49:51;;;;;;;0.53;0.43;;;;;;;23.21;44.98;99303.72;4493261;31;34579;-77
2022/09/11 11:52:30;;;;;;;0.68;0.50;;;;;;;23.16;44.99;99303.22;4492924;31;34117;-77
2022/09/11 11:55:04;;;;;;;0.40;0.40;;;;;;;23.11;44.78;99301.88;4493182;31;34673;-79
2022/09/11 11:57:38;;;;;;;0.60;0.40;;;;;;;23.04;45.71;99308.56;4498538;31;35516;-79